Time;durP1;ratioP1;P1;durP2;ratioP2;P2;SDS_P1;SDS_P2;PMS_P1;PMS_P2;Temp;Humidity;BMP_temperature;BMP_pressure;BME280_temperature;BME280_humidity;BME280_pressure;Samples;Min_cycle;Max_cycle;Signal;HPM_P1;HPM_P2
2022/05/04 00:00:19;;;;;;;8.93;3.55;;;;;;;;;;5122262;28;20078;-46
2022/05/04 00:02:44;;;;;;;4.05;2.70;;;;;;;;;;5121273;28;20422;-48
2022/05/04 00:05:10;;;;;;;14.65;4.95;;;;;;;;;;5120890;28;20726;-46
2022/05/04 00:07:35;;;;;;;11.77;3.40;;;;;;;;;;5121838;28;20046;-49
2022/05/04 00:10:01;;;;;;;6.25;3.42;;;;;;;;;;5121411;28;20523;-46
2022/05/04 00:12:26;;;;;;;9.77;4.00;;;;;;;;;;5121340;28;20134;-44
2022/05/04 00:14:52;;;;;;;4.25;3.35;;;;;;;;;;5121395;28;20540;-46
2022/05/04 00:17:17;;;;;;;9.35;3.97;;;;;;;;;;5121541;28;20772;-49
2022/05/04 00:19:43;;;;;;;12.38;5.47;;;;;;;;;;5121641;28;20051;-48
2022/05/04 00:22:08;;;;;;;13.82;3.95;;;;;;;;;;5120899;28;20138;-48
2022/05/04 00:24:33;;;;;;;15.95;6.00;;;;;;;;;;5121526;28;20126;-49
2022/05/04 00:27:05;;;;;;;11.20;5.25;;;;;;;;;;5120831;28;20502;-47
2022/05/04 00:29:30;;;;;;;7.07;4.45;;;;;;;;;;5120291;28;20043;-48
2022/05/04 00:31:55;;;;;;;11.55;7.03;;;;;;;;;;5121834;28;20051;-46
2022/05/04 00:34:21;;;;;;;6.78;4.53;;;;;;;;;;5118847;28;20390;-53
2022/05/04 00:36:46;;;;;;;6.05;3.95;;;;;;;;;;5120699;28;20046;-46
2022/05/04 00:39:11;;;;;;;4.82;4.38;;;;;;;;;;5120254;28;20398;-48
2022/05/04 00:41:36;;;;;;;4.97;2.78;;;;;;;;;;5121771;28;20091;-50
2022/05/04 00:44:02;;;;;;;12.80;7.68;;;;;;;;;;5121035;28;20038;-47
2022/05/04 00:46:27;;;;;;;11.50;6.57;;;;;;;;;;5120791;28;20414;-47
2022/05/04 00:48:52;;;;;;;9.25;5.35;;;;;;;;;;5120397;28;20086;-48
2022/05/04 00:51:19;;;;;;;6.40;3.67;;;;;;;;;;5120658;28;20050;-46
2022/05/04 00:53:44;;;;;;;8.00;4.55;;;;;;;;;;5120956;28;20202;-45
2022/05/04 00:56:10;;;;;;;6.82;4.65;;;;;;;;;;5120839;28;20129;-44
2022/05/04 00:58:57;;;;;;;7.90;4.35;;;;;;;;;;5120845;28;20411;-45
2022/05/04 01:01:26;;;;;;;7.20;3.38;;;;;;;;;;5123119;28;20054;-45
2022/05/04 01:03:53;;;;;;;7.32;2.92;;;;;;;;;;5125142;28;20372;-48
2022/05/04 01:06:18;;;;;;;4.05;3.05;;;;;;;;;;5125162;28;20193;-47
2022/05/04 01:08:43;;;;;;;2.85;1.48;;;;;;;;;;5125833;28;20407;-48
2022/05/04 01:11:09;;;;;;;6.93;2.65;;;;;;;;;;5127269;27;20067;-46
2022/05/04 01:13:34;;;;;;;4.55;2.08;;;;;;;;;;5129168;28;20031;-47
2022/05/04 01:15:59;;;;;;;7.22;3.60;;;;;;;;;;5123998;28;20129;-50
2022/05/04 01:18:24;;;;;;;6.18;2.80;;;;;;;;;;5124592;28;20036;-45
2022/05/04 01:20:50;;;;;;;6.32;2.47;;;;;;;;;;5123791;28;20062;-48
2022/05/04 01:23:16;;;;;;;6.18;4.00;;;;;;;;;;5125183;28;20061;-51
2022/05/04 01:25:41;;;;;;;10.10;3.85;;;;;;;;;;5123361;28;20075;-48
2022/05/04 01:28:06;;;;;;;5.72;2.72;;;;;;;;;;5123716;28;20434;-47
2022/05/04 01:30:32;;;;;;;10.48;2.63;;;;;;;;;;5122094;28;20818;-47
2022/05/04 01:32:58;;;;;;;10.55;3.58;;;;;;;;;;5123982;28;20058;-47
2022/05/04 01:35:24;;;;;;;11.73;4.90;;;;;;;;;;5122836;28;20049;-46
2022/05/04 01:37:49;;;;;;;3.97;1.58;;;;;;;;;;5123641;28;20373;-46
2022/05/04 01:40:14;;;;;;;1.80;1.00;;;;;;;;;;5123507;28;20050;-50
2022/05/04 01:42:39;;;;;;;3.20;1.00;;;;;;;;;;5124080;28;20051;-48
2022/05/04 01:45:07;;;;;;;6.25;2.67;;;;;;;;;;5123745;28;20039;-46
2022/05/04 01:47:33;;;;;;;6.20;2.83;;;;;;;;;;5123072;28;20061;-49
2022/05/04 01:49:58;;;;;;;6.68;3.15;;;;;;;;;;5123680;28;20051;-48
2022/05/04 01:52:23;;;;;;;4.97;3.33;;;;;;;;;;5123733;28;20131;-52
2022/05/04 01:54:48;;;;;;;9.10;3.00;;;;;;;;;;5123125;28;20164;-49
2022/05/04 01:57:14;;;;;;;9.00;3.55;;;;;;;;;;5123659;28;20043;-50
2022/05/04 01:59:39;;;;;;;4.47;2.95;;;;;;;;;;5124423;28;20099;-45
2022/05/04 02:02:06;;;;;;;3.80;2.40;;;;;;;;;;5123588;28;20043;-44
2022/05/04 02:04:32;;;;;;;6.47;1.35;;;;;;;;;;5123352;28;20035;-51
2022/05/04 02:06:57;;;;;;;1.38;0.75;;;;;;;;;;5123150;28;20050;-49
2022/05/04 02:09:23;;;;;;;3.53;2.58;;;;;;;;;;5123364;28;20035;-44
2022/05/04 02:11:48;;;;;;;4.68;2.65;;;;;;;;;;5122965;28;20062;-45
2022/05/04 02:14:14;;;;;;;4.97;3.05;;;;;;;;;;5123489;28;20820;-46
2022/05/04 02:16:39;;;;;;;4.22;3.13;;;;;;;;;;5125807;28;20102;-47
2022/05/04 02:19:04;;;;;;;6.88;4.22;;;;;;;;;;5127771;28;20047;-48
2022/05/04 02:21:29;;;;;;;9.75;4.15;;;;;;;;;;5127327;27;20050;-45
2022/05/04 02:23:55;;;;;;;4.90;2.83;;;;;;;;;;5127528;28;20043;-43
2022/05/04 02:26:20;;;;;;;8.65;3.08;;;;;;;;;;5128418;28;20051;-44
2022/05/04 02:28:46;;;;;;;6.82;2.20;;;;;;;;;;5127888;28;20069;-44
2022/05/04 02:31:12;;;;;;;9.70;1.88;;;;;;;;;;5122258;28;20047;-51
2022/05/04 02:33:37;;;;;;;2.88;2.05;;;;;;;;;;5122283;28;20100;-45
2022/05/04 02:38:46;;;;;;;9.85;2.25;;;;;;;;;;5123586;28;20166;-51
2022/05/04 02:41:12;;;;;;;8.07;2.20;;;;;;;;;;5122051;28;20059;-45
2022/05/04 02:43:37;;;;;;;9.23;3.25;;;;;;;;;;5102688;28;20205;-49
2022/05/04 02:46:13;;;;;;;2.42;2.20;;;;;;;;;;5122735;28;20425;-47
2022/05/04 02:48:38;;;;;;;6.82;3.15;;;;;;;;;;5122615;28;20039;-45
2022/05/04 02:51:03;;;;;;;5.85;2.97;;;;;;;;;;5123307;28;20508;-45
2022/05/04 02:53:29;;;;;;;4.00;2.63;;;;;;;;;;5123129;28;20039;-49
2022/05/04 02:55:54;;;;;;;5.03;2.15;;;;;;;;;;5122276;28;20055;-46
2022/05/04 02:58:19;;;;;;;4.78;2.42;;;;;;;;;;5122309;28;20047;-50
2022/05/04 03:00:45;;;;;;;4.15;1.75;;;;;;;;;;5122547;28;20890;-50
2022/05/04 03:03:10;;;;;;;6.05;2.45;;;;;;;;;;5122461;28;20142;-48
2022/05/04 03:05:36;;;;;;;13.27;2.45;;;;;;;;;;5121739;28;20043;-47
2022/05/04 03:08:01;;;;;;;5.88;2.78;;;;;;;;;;5122443;28;20539;-49
2022/05/04 03:10:26;;;;;;;2.78;1.65;;;;;;;;;;5122911;28;20147;-49
2022/05/04 03:12:52;;;;;;;11.13;2.67;;;;;;;;;;5121124;28;20047;-46
2022/05/04 03:15:17;;;;;;;2.20;1.23;;;;;;;;;;5122037;28;20051;-46
2022/05/04 03:17:42;;;;;;;3.33;2.13;;;;;;;;;;5121982;28;20047;-49
2022/05/04 03:20:08;;;;;;;2.90;1.73;;;;;;;;;;5122069;28;20051;-48
2022/05/04 03:22:34;;;;;;;6.15;1.50;;;;;;;;;;5122006;27;20047;-49
2022/05/04 03:24:59;;;;;;;2.13;1.60;;;;;;;;;;5118862;28;20505;-47
2022/05/04 03:27:24;;;;;;;7.55;2.05;;;;;;;;;;5117628;27;21369;-45
2022/05/04 03:29:50;;;;;;;5.05;2.70;;;;;;;;;;5122318;28;20569;-46
2022/05/04 03:32:15;;;;;;;4.28;2.45;;;;;;;;;;5125699;28;20086;-47
2022/05/04 03:34:40;;;;;;;6.43;1.92;;;;;;;;;;5124624;27;20047;-48
2022/05/04 03:37:06;;;;;;;4.68;2.45;;;;;;;;;;5125993;28;20428;-49
2022/05/04 03:39:31;;;;;;;3.63;1.52;;;;;;;;;;5126862;28;20150;-49
2022/05/04 03:41:57;;;;;;;31.55;3.65;;;;;;;;;;5126828;28;20130;-49
2022/05/04 03:44:22;;;;;;;7.47;3.40;;;;;;;;;;5126952;28;20535;-46
2022/05/04 03:46:48;;;;;;;5.47;2.13;;;;;;;;;;5127031;28;20597;-48
2022/05/04 03:49:14;;;;;;;3.42;1.90;;;;;;;;;;5125819;28;20047;-47
2022/05/04 03:51:40;;;;;;;5.88;3.20;;;;;;;;;;5125935;28;20138;-49
2022/05/04 03:54:05;;;;;;;1.88;1.25;;;;;;;;;;5126838;28;20151;-46
2022/05/04 03:56:31;;;;;;;6.47;1.63;;;;;;;;;;5126841;28;20093;-51
2022/05/04 03:58:56;;;;;;;5.90;1.98;;;;;;;;;;5126673;28;20103;-48
2022/05/04 04:01:22;;;;;;;5.78;2.90;;;;;;;;;;5126638;28;20130;-51
2022/05/04 04:03:47;;;;;;;6.45;2.75;;;;;;;;;;5126574;28;20490;-47
2022/05/04 04:06:12;;;;;;;8.38;3.53;;;;;;;;;;5127102;28;20505;-49
2022/05/04 04:08:38;;;;;;;5.18;2.00;;;;;;;;;;5126621;28;20392;-48
2022/05/04 04:11:03;;;;;;;6.45;2.38;;;;;;;;;;5126419;28;20051;-50
2022/05/04 04:13:29;;;;;;;10.23;2.97;;;;;;;;;;5126721;28;20414;-48
2022/05/04 04:15:54;;;;;;;4.57;1.90;;;;;;;;;;5126283;28;20083;-46
2022/05/04 04:18:20;;;;;;;5.28;2.78;;;;;;;;;;5126146;28;20050;-45
2022/05/04 04:23:34;;;;;;;2.83;2.08;;;;;;;;;;5085397;28;20051;-45
2022/05/04 04:26:00;;;;;;;10.45;2.20;;;;;;;;;;5126305;28;20351;-46
2022/05/04 04:28:25;;;;;;;7.60;2.97;;;;;;;;;;5126248;28;20470;-47
2022/05/04 04:30:51;;;;;;;3.85;2.30;;;;;;;;;;5125168;28;20516;-49
2022/05/04 04:33:16;;;;;;;3.30;2.22;;;;;;;;;;5126290;28;20040;-50
2022/05/04 04:35:42;;;;;;;7.78;2.58;;;;;;;;;;5125194;28;20047;-48
2022/05/04 04:38:07;;;;;;;3.42;1.67;;;;;;;;;;5125157;28;20042;-49
2022/05/04 04:40:33;;;;;;;5.15;2.42;;;;;;;;;;5125881;28;20043;-48
2022/05/04 04:43:00;;;;;;;7.75;2.92;;;;;;;;;;5125462;28;20043;-50
2022/05/04 04:45:26;;;;;;;15.07;4.38;;;;;;;;;;5126710;27;20142;-49
2022/05/04 04:47:51;;;;;;;6.00;3.80;;;;;;;;;;5129824;28;20047;-51
2022/05/04 04:50:17;;;;;;;6.13;5.07;;;;;;;;;;5129723;28;20057;-47
2022/05/04 04:52:42;;;;;;;13.23;3.83;;;;;;;;;;5129418;28;20039;-50
2022/05/04 04:55:08;;;;;;;4.70;1.85;;;;;;;;;;5129242;28;20081;-50
2022/05/04 04:57:36;;;;;;;9.80;2.85;;;;;;;;;;5129375;28;20039;-48
2022/05/04 05:00:03;;;;;;;3.95;2.15;;;;;;;;;;5129345;28;20062;-50
2022/05/04 05:02:28;;;;;;;8.55;2.67;;;;;;;;;;5129632;28;20047;-49
2022/05/04 05:04:54;;;;;;;9.00;3.03;;;;;;;;;;5129298;28;20047;-47
2022/05/04 05:07:20;;;;;;;5.75;3.15;;;;;;;;;;5129403;28;20857;-50
2022/05/04 05:09:45;;;;;;;7.18;2.58;;;;;;;;;;5129100;28;20031;-48
2022/05/04 05:12:11;;;;;;;4.60;2.28;;;;;;;;;;5129518;28;20041;-48
2022/05/04 05:17:20;;;;;;;1.60;1.33;;;;;;;;;;5129476;28;20050;-49
2022/05/04 05:19:45;;;;;;;4.35;1.65;;;;;;;;;;5128380;28;20035;-48
2022/05/04 05:22:10;;;;;;;4.57;2.47;;;;;;;;;;5128691;28;20542;-49
2022/05/04 05:24:36;;;;;;;8.10;2.70;;;;;;;;;;5128840;28;20054;-47
2022/05/04 05:27:01;;;;;;;5.95;3.40;;;;;;;;;;5129293;28;20032;-46
2022/05/04 05:29:26;;;;;;;13.60;3.17;;;;;;;;;;5128746;28;20135;-48
2022/05/04 05:31:52;;;;;;;6.40;2.38;;;;;;;;;;5128548;28;20183;-46
2022/05/04 05:34:17;;;;;;;6.35;3.28;;;;;;;;;;5128719;28;20061;-44
2022/05/04 05:36:42;;;;;;;4.85;2.78;;;;;;;;;;5128787;28;20047;-44
2022/05/04 05:39:08;;;;;;;3.83;2.40;;;;;;;;;;5126543;28;20573;-47
2022/05/04 05:41:33;;;;;;;11.82;2.90;;;;;;;;;;5127503;28;20131;-49
2022/05/04 05:43:58;;;;;;;5.10;2.45;;;;;;;;;;5126060;28;21490;-47
2022/05/04 05:46:23;;;;;;;10.88;4.10;;;;;;;;;;5128481;28;20042;-49
2022/05/04 05:48:49;;;;;;;7.35;5.20;;;;;;;;;;5128946;28;20035;-44
2022/05/04 05:51:14;;;;;;;21.23;11.38;;;;;;;;;;5127608;28;20114;-47
2022/05/04 05:53:40;;;;;;;12.85;11.02;;;;;;;;;;5127193;28;20402;-48
2022/05/04 05:56:05;;;;;;;8.77;7.97;;;;;;;;;;5108143;28;20826;-44
2022/05/04 05:58:30;;;;;;;11.63;6.85;;;;;;;;;;5126461;28;20074;-49
2022/05/04 06:00:56;;;;;;;6.00;5.35;;;;;;;;;;5126769;28;20047;-49
2022/05/04 06:03:22;;;;;;;11.82;5.63;;;;;;;;;;5127203;28;20482;-48
2022/05/04 06:05:47;;;;;;;10.57;5.22;;;;;;;;;;5126782;28;20051;-47
2022/05/04 06:08:12;;;;;;;15.50;7.10;;;;;;;;;;5127148;28;20528;-44
2022/05/04 06:10:38;;;;;;;15.63;5.80;;;;;;;;;;5122659;28;20070;-50
2022/05/04 06:13:03;;;;;;;7.25;5.20;;;;;;;;;;5127020;28;20115;-47
2022/05/04 06:15:29;;;;;;;10.85;4.22;;;;;;;;;;5127070;28;20528;-49
2022/05/04 06:17:55;;;;;;;28.25;5.03;;;;;;;;;;5128454;28;20062;-48
2022/05/04 06:20:22;;;;;;;5.80;4.97;;;;;;;;;;5125858;28;20059;-44
2022/05/04 06:22:48;;;;;;;5.22;3.15;;;;;;;;;;5126677;28;20054;-49
2022/05/04 06:25:13;;;;;;;4.57;2.50;;;;;;;;;;5126760;28;20035;-48
2022/05/04 06:27:38;;;;;;;11.07;4.07;;;;;;;;;;5127961;28;20050;-47
2022/05/04 06:35:32;;;;;;;16.63;6.65;;;;;;;;;;5127460;28;20078;-45
2022/05/04 06:37:57;;;;;;;17.13;5.45;;;;;;;;;;5124857;28;20520;-42
2022/05/04 06:40:22;;;;;;;17.05;9.90;;;;;;;;;;5127679;28;20122;-54
2022/05/04 06:42:48;;;;;;;21.42;10.00;;;;;;;;;;5127843;28;20115;-54
2022/05/04 06:45:13;;;;;;;24.35;10.43;;;;;;;;;;5128165;28;20542;-50
2022/05/04 06:47:38;;;;;;;14.38;8.57;;;;;;;;;;5127309;28;20920;-50
2022/05/04 06:50:04;;;;;;;16.27;8.98;;;;;;;;;;5127651;28;20051;-52
2022/05/04 06:52:30;;;;;;;14.38;9.02;;;;;;;;;;5126938;28;20097;-55
2022/05/04 06:54:55;;;;;;;15.07;9.68;;;;;;;;;;5127806;28;20126;-52
2022/05/04 06:57:21;;;;;;;15.30;10.98;;;;;;;;;;5108109;28;20197;-48
2022/05/04 06:59:46;;;;;;;21.40;10.15;;;;;;;;;;5125868;28;20176;-55
2022/05/04 07:02:11;;;;;;;10.98;7.57;;;;;;;;;;5127562;28;20511;-53
2022/05/04 07:04:37;;;;;;;8.10;5.60;;;;;;;;;;5127406;28;20082;-58
2022/05/04 07:07:02;;;;;;;16.35;8.43;;;;;;;;;;5127722;28;20092;-58
2022/05/04 07:09:27;;;;;;;10.00;8.73;;;;;;;;;;5126146;27;20688;-58
2022/05/04 07:11:53;;;;;;;19.42;12.27;;;;;;;;;;5125011;28;20046;-54
2022/05/04 07:14:18;;;;;;;9.38;7.47;;;;;;;;;;5127348;28;20439;-54
2022/05/04 07:16:44;;;;;;;22.27;9.48;;;;;;;;;;5126974;28;20043;-54
2022/05/04 07:19:09;;;;;;;11.40;6.47;;;;;;;;;;5127015;28;20130;-52
2022/05/04 07:21:35;;;;;;;16.35;7.40;;;;;;;;;;5126519;28;20054;-52
2022/05/04 07:24:00;;;;;;;37.75;12.77;;;;;;;;;;5126770;28;20039;-49
2022/05/04 07:26:25;;;;;;;79.10;17.15;;;;;;;;;;5125825;28;20066;-55
2022/05/04 07:28:51;;;;;;;22.83;11.60;;;;;;;;;;5127301;28;20135;-54
2022/05/04 07:31:16;;;;;;;32.80;10.32;;;;;;;;;;5127389;28;20146;-57
2022/05/04 07:33:41;;;;;;;15.80;8.35;;;;;;;;;;5127224;28;20043;-56
2022/05/04 07:36:07;;;;;;;15.77;9.55;;;;;;;;;;5127414;28;20140;-56
2022/05/04 07:38:32;;;;;;;17.50;8.55;;;;;;;;;;5127002;28;20118;-57
2022/05/04 07:43:41;;;;;;;21.65;9.18;;;;;;;;;;5126302;28;20043;-57
2022/05/04 07:46:06;;;;;;;8.00;6.35;;;;;;;;;;5127092;28;20039;-58
2022/05/04 07:48:32;;;;;;;34.13;9.43;;;;;;;;;;5125792;28;20035;-58
2022/05/04 07:50:57;;;;;;;25.73;10.07;;;;;;;;;;5126381;28;20099;-54
2022/05/04 07:53:23;;;;;;;11.35;6.32;;;;;;;;;;5126799;28;20057;-52
2022/05/04 07:55:48;;;;;;;17.67;8.43;;;;;;;;;;5126104;28;20548;-51
2022/05/04 07:58:13;;;;;;;16.23;8.23;;;;;;;;;;5125677;28;20099;-48
2022/05/04 08:06:07;;;;;;;14.23;7.88;;;;;;;;;;5126488;28;20050;-54
2022/05/04 08:08:32;;;;;;;16.27;11.85;;;;;;;;;;5125758;28;20035;-53
2022/05/04 08:10:57;;;;;;;15.07;6.30;;;;;;;;;;5125521;28;20070;-55
2022/05/04 08:13:23;;;;;;;9.73;3.03;;;;;;;;;;5125404;28;20184;-54
2022/05/04 08:15:48;;;;;;;3.83;2.00;;;;;;;;;;5126341;28;20035;-55
2022/05/04 08:18:13;;;;;;;11.20;3.47;;;;;;;;;;5126421;28;20506;-54
2022/05/04 08:20:39;;;;;;;6.70;4.28;;;;;;;;;;5125612;27;20097;-52
2022/05/04 08:23:04;;;;;;;10.45;2.08;;;;;;;;;;5124701;28;20494;-53
2022/05/04 08:25:30;;;;;;;8.98;2.88;;;;;;;;;;5124401;28;20115;-54
2022/05/04 08:27:56;;;;;;;7.95;2.80;;;;;;;;;;5124542;28;20091;-53
2022/05/04 08:30:23;;;;;;;14.80;3.88;;;;;;;;;;5125731;28;20059;-53
2022/05/04 08:32:49;;;;;;;14.38;4.47;;;;;;;;;;5124969;28;20045;-52
2022/05/04 08:35:14;;;;;;;7.40;2.55;;;;;;;;;;5125810;28;20043;-53
2022/05/04 08:37:40;;;;;;;4.68;3.20;;;;;;;;;;5125701;28;20379;-53
2022/05/04 08:40:06;;;;;;;4.47;3.38;;;;;;;;;;5125577;28;20079;-52
2022/05/04 08:42:31;;;;;;;15.73;3.40;;;;;;;;;;5126162;28;20049;-55
2022/05/04 08:44:58;;;;;;;2.45;2.13;;;;;;;;;;5126184;28;20792;-55
2022/05/04 08:47:25;;;;;;;7.32;4.28;;;;;;;;;;5124961;28;20110;-54
2022/05/04 08:49:51;;;;;;;5.47;3.58;;;;;;;;;;5125612;28;20054;-55
2022/05/04 08:52:17;;;;;;;6.78;2.90;;;;;;;;;;5107926;28;20514;-54
2022/05/04 08:54:45;;;;;;;10.23;2.67;;;;;;;;;;5125278;28;20067;-54
2022/05/04 08:57:11;;;;;;;2.65;2.00;;;;;;;;;;5125641;28;20643;-55
2022/05/04 08:59:36;;;;;;;5.80;2.88;;;;;;;;;;5125930;28;20063;-52
2022/05/04 09:02:02;;;;;;;3.83;2.17;;;;;;;;;;5125906;28;20043;-55
2022/05/04 09:04:29;;;;;;;8.45;3.80;;;;;;;;;;5125560;28;20130;-53
2022/05/04 09:06:56;;;;;;;3.38;2.25;;;;;;;;;;5126055;28;20088;-52
2022/05/04 09:09:22;;;;;;;4.78;1.75;;;;;;;;;;5125445;28;20043;-54
2022/05/04 09:11:47;;;;;;;2.80;1.90;;;;;;;;;;5123813;28;20399;-52
2022/05/04 09:14:13;;;;;;;2.60;1.85;;;;;;;;;;5125403;28;20461;-51
2022/05/04 09:16:38;;;;;;;4.50;2.22;;;;;;;;;;5125878;28;20155;-55
2022/05/04 09:19:04;;;;;;;2.25;1.95;;;;;;;;;;5123193;28;20656;-55
2022/05/04 09:21:30;;;;;;;5.78;1.88;;;;;;;;;;5125769;28;20047;-51
2022/05/04 09:23:55;;;;;;;4.05;3.20;;;;;;;;;;5125056;28;20514;-53
2022/05/04 09:26:21;;;;;;;3.63;1.92;;;;;;;;;;5124591;28;20126;-50
2022/05/04 09:28:51;;;;;;;3.67;2.25;;;;;;;;;;5124874;28;20554;-53
2022/05/04 09:31:18;;;;;;;4.03;2.35;;;;;;;;;;5125688;27;20107;-54
2022/05/04 09:33:43;;;;;;;7.53;4.00;;;;;;;;;;5128524;28;20039;-47
2022/05/04 09:36:11;;;;;;;3.70;2.92;;;;;;;;;;5126836;28;20042;-52
2022/05/04 09:47:19;;;;;;;3.97;2.70;;;;;;;;;;5031536;28;20131;-48
2022/05/04 09:49:46;;;;;;;7.55;3.28;;;;;;;;;;5099032;28;20150;-54
2022/05/04 09:52:14;;;;;;;3.97;3.15;;;;;;;;;;5128954;28;20031;-51
2022/05/04 09:54:39;;;;;;;7.88;2.45;;;;;;;;;;5126678;28;20042;-54
2022/05/04 09:57:04;;;;;;;10.65;4.10;;;;;;;;;;5127338;28;20031;-54
2022/05/04 09:59:31;;;;;;;9.15;2.63;;;;;;;;;;5128377;28;20459;-54
2022/05/04 10:01:59;;;;;;;3.33;1.98;;;;;;;;;;5128103;28;20047;-54
2022/05/04 10:04:25;;;;;;;3.53;2.30;;;;;;;;;;5128031;28;20440;-53
2022/05/04 10:06:50;;;;;;;7.45;3.22;;;;;;;;;;5128060;28;20043;-54
2022/05/04 10:09:16;;;;;;;5.47;2.10;;;;;;;;;;5128262;28;20051;-52
2022/05/04 10:11:41;;;;;;;7.28;2.75;;;;;;;;;;5127741;28;20422;-53
2022/05/04 10:14:10;;;;;;;2.85;2.00;;;;;;;;;;5127248;28;20422;-53
2022/05/04 10:16:41;;;;;;;3.78;2.17;;;;;;;;;;5126328;28;20082;-53
2022/05/04 10:19:10;;;;;;;5.07;2.58;;;;;;;;;;5127765;28;20051;-53
2022/05/04 10:21:36;;;;;;;12.48;3.17;;;;;;;;;;5127282;28;20058;-51
2022/05/04 10:24:06;;;;;;;4.38;2.15;;;;;;;;;;5127817;28;20512;-54
2022/05/04 10:26:32;;;;;;;5.57;2.85;;;;;;;;;;5107317;28;20051;-53
2022/05/04 10:31:51;;;;;;;14.52;4.75;;;;;;;;;;5126542;28;20514;-54
2022/05/04 10:34:17;;;;;;;9.68;3.28;;;;;;;;;;5126682;28;20042;-54
2022/05/04 10:36:45;;;;;;;4.93;2.85;;;;;;;;;;5127756;28;20534;-54
2022/05/04 10:39:18;;;;;;;4.45;3.90;;;;;;;;;;5127736;28;20078;-54
2022/05/04 10:41:43;;;;;;;17.33;4.95;;;;;;;;;;5107519;28;20047;-51
2022/05/04 10:44:09;;;;;;;6.68;4.22;;;;;;;;;;5127341;27;20054;-54
2022/05/04 10:46:37;;;;;;;12.07;3.88;;;;;;;;;;5127879;28;20505;-55
2022/05/04 10:49:03;;;;;;;6.57;3.75;;;;;;;;;;5107064;28;20027;-52
2022/05/04 10:51:30;;;;;;;7.93;4.15;;;;;;;;;;5104632;28;20054;-53
2022/05/04 10:54:17;;;;;;;4.93;3.88;;;;;;;;;;5126991;28;20094;-53
2022/05/04 10:56:47;;;;;;;6.68;3.45;;;;;;;;;;5126077;28;20050;-53
2022/05/04 10:59:22;;;;;;;6.25;2.45;;;;;;;;;;5126638;28;20978;-48
2022/05/04 11:01:48;;;;;;;5.55;1.45;;;;;;;;;;5127301;28;20216;-49
2022/05/04 11:04:18;;;;;;;3.03;1.67;;;;;;;;;;5127170;28;20747;-51
2022/05/04 11:06:43;;;;;;;1.90;1.07;;;;;;;;;;5127045;27;20672;-50
2022/05/04 11:09:09;;;;;;;4.47;1.85;;;;;;;;;;5126376;27;20339;-54
2022/05/04 11:11:36;;;;;;;8.15;4.53;;;;;;;;;;5126167;28;20046;-51
2022/05/04 11:14:02;;;;;;;13.15;6.57;;;;;;;;;;5127049;28;20050;-52
2022/05/04 11:16:28;;;;;;;6.97;4.57;;;;;;;;;;5127471;28;20038;-50
2022/05/04 11:18:53;;;;;;;10.68;3.80;;;;;;;;;;5104360;28;20071;-52
2022/05/04 11:21:19;;;;;;;13.10;5.68;;;;;;;;;;5126673;28;20047;-48
2022/05/04 11:23:51;;;;;;;4.30;3.25;;;;;;;;;;5126968;28;20072;-50
2022/05/04 11:26:21;;;;;;;14.13;4.28;;;;;;;;;;5126507;28;20040;-49
2022/05/04 11:28:47;;;;;;;8.48;4.68;;;;;;;;;;5125172;28;20070;-53
2022/05/04 11:31:12;;;;;;;4.30;3.78;;;;;;;;;;5124592;28;20043;-52
2022/05/04 11:33:40;;;;;;;7.25;3.63;;;;;;;;;;5125603;28;20433;-51
2022/05/04 11:36:05;;;;;;;17.45;5.25;;;;;;;;;;5126030;28;20259;-51
2022/05/04 11:38:30;;;;;;;9.70;5.00;;;;;;;;;;5126375;28;20594;-52
2022/05/04 11:40:55;;;;;;;3.88;2.67;;;;;;;;;;5125697;28;20050;-53
2022/05/04 11:43:28;;;;;;;5.05;3.60;;;;;;;;;;5126298;28;20039;-54
2022/05/04 11:45:54;;;;;;;6.97;3.95;;;;;;;;;;5126642;28;20138;-51
2022/05/04 11:48:19;;;;;;;5.53;4.03;;;;;;;;;;5126885;28;20434;-50
2022/05/04 11:50:45;;;;;;;18.13;3.45;;;;;;;;;;5126574;28;20053;-52
2022/05/04 11:53:11;;;;;;;6.80;3.17;;;;;;;;;;5126506;28;20126;-49
2022/05/04 11:55:36;;;;;;;15.48;4.13;;;;;;;;;;5125987;27;20667;-53
2022/05/04 11:58:06;;;;;;;7.75;3.92;;;;;;;;;;5127110;28;20117;-49
2022/05/04 12:00:32;;;;;;;20.73;4.45;;;;;;;;;;5127372;28;20848;-52
2022/05/04 12:02:57;;;;;;;8.63;3.80;;;;;;;;;;5126948;28;20061;-50
2022/05/04 12:05:23;;;;;;;3.63;2.92;;;;;;;;;;5124860;28;20054;-52
2022/05/04 12:07:48;;;;;;;3.63;2.50;;;;;;;;;;5126627;28;20520;-54
2022/05/04 12:10:13;;;;;;;6.80;2.83;;;;;;;;;;5126044;28;20043;-54
2022/05/04 12:12:40;;;;;;;3.95;3.13;;;;;;;;;;5126214;28;20057;-55
2022/05/04 12:15:06;;;;;;;9.40;2.38;;;;;;;;;;5126426;28;20042;-51
2022/05/04 12:17:35;;;;;;;4.00;2.60;;;;;;;;;;5105470;28;20367;-52
2022/05/04 12:20:01;;;;;;;13.20;11.88;;;;;;;;;;5126754;28;20047;-51
2022/05/04 12:22:26;;;;;;;3.95;2.28;;;;;;;;;;5126328;28;20112;-54
2022/05/04 12:24:52;;;;;;;2.92;2.13;;;;;;;;;;5126303;28;20088;-50
2022/05/04 12:27:17;;;;;;;4.78;1.98;;;;;;;;;;5126283;28;20035;-51
2022/05/04 12:35:10;;;;;;;6.72;4.82;;;;;;;;;;5126052;28;20107;-47
2022/05/04 12:37:36;;;;;;;9.93;4.90;;;;;;;;;;5126482;28;20126;-52
2022/05/04 12:40:02;;;;;;;27.02;14.15;;;;;;;;;;5120385;27;20425;-53
2022/05/04 12:42:27;;;;;;;16.48;11.68;;;;;;;;;;5126345;28;20109;-50
2022/05/04 12:44:53;;;;;;;5.57;4.32;;;;;;;;;;5125632;28;20578;-49
2022/05/04 12:47:20;;;;;;;8.38;5.55;;;;;;;;;;5125922;28;20035;-51
2022/05/04 12:49:45;;;;;;;6.45;3.38;;;;;;;;;;5125677;28;20066;-53
2022/05/04 12:52:11;;;;;;;8.30;2.97;;;;;;;;;;5125385;28;20528;-53
2022/05/04 12:54:37;;;;;;;5.10;3.80;;;;;;;;;;5125166;28;20046;-50
2022/05/04 12:57:03;;;;;;;2.70;2.47;;;;;;;;;;5126138;28;20058;-49
2022/05/04 12:59:28;;;;;;;12.05;3.85;;;;;;;;;;5126521;28;20051;-50
2022/05/04 13:01:54;;;;;;;8.93;2.88;;;;;;;;;;5126093;28;20180;-51
2022/05/04 13:04:19;;;;;;;4.57;3.05;;;;;;;;;;5125873;28;20740;-51
2022/05/04 13:06:45;;;;;;;3.78;3.08;;;;;;;;;;5127080;27;20454;-53
2022/05/04 13:09:10;;;;;;;2.75;2.47;;;;;;;;;;5129702;28;20046;-52
2022/05/04 13:11:36;;;;;;;3.00;2.45;;;;;;;;;;5129783;28;20103;-51
2022/05/04 13:14:01;;;;;;;15.82;2.60;;;;;;;;;;5128251;28;20054;-55
2022/05/04 13:16:26;;;;;;;4.53;2.13;;;;;;;;;;5129232;28;20069;-45
2022/05/04 13:18:52;;;;;;;2.22;1.10;;;;;;;;;;5128969;28;20031;-50
2022/05/04 13:21:18;;;;;;;5.78;1.88;;;;;;;;;;5129130;28;20059;-50
2022/05/04 13:23:44;;;;;;;4.63;2.30;;;;;;;;;;5129468;28;20058;-51
2022/05/04 13:26:10;;;;;;;4.15;1.85;;;;;;;;;;5128370;28;20031;-47
2022/05/04 13:28:35;;;;;;;3.22;1.55;;;;;;;;;;5129192;28;20096;-54
2022/05/04 13:31:01;;;;;;;3.00;2.70;;;;;;;;;;5127599;28;20478;-51
2022/05/04 13:33:26;;;;;;;6.88;3.45;;;;;;;;;;5128527;28;20047;-50
2022/05/04 13:35:52;;;;;;;2.72;1.58;;;;;;;;;;5128416;28;20541;-50
2022/05/04 13:38:17;;;;;;;4.93;1.98;;;;;;;;;;5128273;28;20042;-50
2022/05/04 13:40:43;;;;;;;2.70;2.20;;;;;;;;;;5128971;28;20058;-50
2022/05/04 13:43:09;;;;;;;4.22;2.25;;;;;;;;;;5128495;28;20067;-53
2022/05/04 13:45:34;;;;;;;4.07;2.08;;;;;;;;;;5128043;28;20043;-49
2022/05/04 13:47:59;;;;;;;5.63;2.00;;;;;;;;;;5128892;28;20084;-48
2022/05/04 13:53:15;;;;;;;3.08;1.90;;;;;;;;;;5128284;27;20183;-55
2022/05/04 13:55:45;;;;;;;3.28;1.67;;;;;;;;;;5128557;28;20051;-55
2022/05/04 13:58:11;;;;;;;2.47;1.77;;;;;;;;;;5128211;28;20154;-54
2022/05/04 14:00:36;;;;;;;3.88;2.28;;;;;;;;;;5127055;28;21025;-50
2022/05/04 14:03:02;;;;;;;5.85;2.67;;;;;;;;;;5128635;28;20134;-53
2022/05/04 14:05:28;;;;;;;1.95;1.65;;;;;;;;;;5128723;28;20371;-50
2022/05/04 14:07:53;;;;;;;3.13;2.28;;;;;;;;;;5128371;28;20039;-52
2022/05/04 14:10:18;;;;;;;3.72;2.63;;;;;;;;;;5128040;28;20062;-52
2022/05/04 14:12:44;;;;;;;3.05;1.80;;;;;;;;;;5128162;28;20051;-52
2022/05/04 14:15:11;;;;;;;3.58;1.85;;;;;;;;;;5127133;28;20830;-49
2022/05/04 14:17:37;;;;;;;2.65;2.28;;;;;;;;;;5109131;28;20047;-54
2022/05/04 14:20:02;;;;;;;5.63;3.45;;;;;;;;;;5128302;28;20043;-53
2022/05/04 14:22:28;;;;;;;2.83;1.88;;;;;;;;;;5126939;28;20043;-47
2022/05/04 14:24:53;;;;;;;3.72;2.63;;;;;;;;;;5127717;28;20189;-49
2022/05/04 14:27:18;;;;;;;2.08;1.45;;;;;;;;;;5128243;28;20592;-48
2022/05/04 14:29:44;;;;;;;9.35;3.92;;;;;;;;;;5128013;28;20117;-50
2022/05/04 14:32:09;;;;;;;2.78;1.75;;;;;;;;;;5128040;28;20035;-47
2022/05/04 14:34:34;;;;;;;2.53;1.65;;;;;;;;;;5127076;28;20070;-46
2022/05/04 14:37:00;;;;;;;7.93;4.13;;;;;;;;;;5127679;28;20043;-50
2022/05/04 14:39:25;;;;;;;1.83;1.30;;;;;;;;;;5127236;28;20070;-52
2022/05/04 14:41:51;;;;;;;10.50;2.95;;;;;;;;;;5127487;28;20667;-50
2022/05/04 14:44:17;;;;;;;4.50;3.15;;;;;;;;;;5127369;28;20073;-49
2022/05/04 14:46:42;;;;;;;7.00;4.00;;;;;;;;;;5127563;28;20079;-53
2022/05/04 14:49:07;;;;;;;12.10;4.82;;;;;;;;;;5126864;28;20091;-53
2022/05/04 14:51:33;;;;;;;5.75;3.30;;;;;;;;;;5127700;28;20078;-53
2022/05/04 14:53:58;;;;;;;16.25;3.85;;;;;;;;;;5128026;28;20141;-54
2022/05/04 14:56:24;;;;;;;3.88;3.15;;;;;;;;;;5127867;28;20039;-53
2022/05/04 14:58:49;;;;;;;4.68;2.28;;;;;;;;;;5127638;28;20065;-52
2022/05/04 15:01:14;;;;;;;5.43;3.63;;;;;;;;;;5127535;28;20507;-51
2022/05/04 15:06:24;;;;;;;7.35;3.33;;;;;;;;;;5127464;28;20034;-53
2022/05/04 15:08:49;;;;;;;3.75;2.38;;;;;;;;;;5126238;28;20031;-53
2022/05/04 15:11:15;;;;;;;5.95;3.65;;;;;;;;;;5127309;28;20277;-53
2022/05/04 15:13:40;;;;;;;4.55;3.30;;;;;;;;;;5127560;28;20521;-52